地図

経路データ

SID SEASON NUMBER BASIN SUBBASIN NAME ISO_TIME NATURE LAT LON WMO_WIND WMO_PRES WMO_AGENCY TRACK_TYPE DIST2LAND LANDFALL IFLAG USA_AGENCY USA_ATCF_ID USA_LAT USA_LON USA_RECORD USA_STATUS USA_WIND USA_PRES USA_SSHS USA_R34_NE USA_R34_SE USA_R34_SW USA_R34_NW USA_R50_NE USA_R50_SE USA_R50_SW USA_R50_NW USA_R64_NE USA_R64_SE USA_R64_SW USA_R64_NW USA_POCI USA_ROCI USA_RMW USA_EYE TOKYO_LAT TOKYO_LON TOKYO_GRADE TOKYO_WIND TOKYO_PRES TOKYO_R50_DIR TOKYO_R50_LONG TOKYO_R50_SHORT TOKYO_R30_DIR TOKYO_R30_LONG TOKYO_R30_SHORT TOKYO_LAND CMA_LAT CMA_LON CMA_CAT CMA_WIND CMA_PRES HKO_LAT HKO_LON HKO_CAT HKO_WIND HKO_PRES NEWDELHI_LAT NEWDELHI_LON NEWDELHI_GRADE NEWDELHI_WIND NEWDELHI_PRES NEWDELHI_CI NEWDELHI_DP NEWDELHI_POCI REUNION_LAT REUNION_LON REUNION_TYPE REUNION_WIND REUNION_PRES REUNION_TNUM REUNION_CI REUNION_RMW REUNION_R34_NE REUNION_R34_SE REUNION_R34_SW REUNION_R34_NW REUNION_R50_NE REUNION_R50_SE REUNION_R50_SW REUNION_R50_NW REUNION_R64_NE REUNION_R64_SE REUNION_R64_SW REUNION_R64_NW BOM_LAT BOM_LON BOM_TYPE BOM_WIND BOM_PRES BOM_TNUM BOM_CI BOM_RMW BOM_R34_NE BOM_R34_SE BOM_R34_SW BOM_R34_NW BOM_R50_NE BOM_R50_SE BOM_R50_SW BOM_R50_NW BOM_R64_NE BOM_R64_SE BOM_R64_SW BOM_R64_NW BOM_ROCI BOM_POCI BOM_EYE BOM_POS_METHOD BOM_PRES_METHOD NADI_LAT NADI_LON NADI_CAT NADI_WIND NADI_PRES WELLINGTON_LAT WELLINGTON_LON WELLINGTON_WIND WELLINGTON_PRES DS824_LAT DS824_LON DS824_STAGE DS824_WIND DS824_PRES TD9636_LAT TD9636_LON TD9636_STAGE TD9636_WIND TD9636_PRES TD9635_LAT TD9635_LON TD9635_WIND TD9635_PRES TD9635_ROCI NEUMANN_LAT NEUMANN_LON NEUMANN_CLASS NEUMANN_WIND NEUMANN_PRES MLC_LAT MLC_LON MLC_CLASS MLC_WIND MLC_PRES USA_GUST BOM_GUST BOM_GUST_PER REUNION_GUST REUNION_GUST_PER USA_SEAHGT USA_SEARAD_NE USA_SEARAD_SE USA_SEARAD_SW USA_SEARAD_NW STORM_SPEED STORM_DIR
1948049S15119 1948 18 SI WA NOT_NAMED 1948-02-17 23:00:00 NR -15.0000 119.000 main 423 417 __________O___ -1 -15.0000 119.000 7 6 0
1948049S15119 1948 18 SI WA NOT_NAMED 1948-02-18 00:00:00 TS -15.0978 119.013 main 417 417 O________OP___ jtwc_sh SH141948 -15.1000 119.000 -1 -15.1000 119.000 TC -15.0955 119.025 7 2 232
1948049S15119 1948 18 SI WA NOT_NAMED 1948-02-18 01:00:00 TS -15.0488 118.939 990 bom main 432 411 P_____O__PP___ SH141948 -15.2043 119.041 -1 -14.0000 118.200 990 -15.2043 119.041 TC -15.1909 119.050 7 2 209
1948049S15119 1948 18 SI WA NOT_NAMED 1948-02-18 03:00:00 TS -15.2076 118.956 main 411 395 P_____P__PP___ SH141948 -15.4100 119.117 -1 -14.2546 118.185 -15.4100 119.117 TC -15.3805 119.098 7 5 174
1948049S15119 1948 18 SI WA NOT_NAMED 1948-02-18 06:00:00 TS -15.4765 118.981 main 395 385 O_____P__OP___ jtwc_sh SH141948 -15.7000 119.200 -1 -14.6362 118.162 -15.7000 119.200 TC -15.6597 119.158 7 5 0
1948049S15119 1948 18 SI WA NOT_NAMED 1948-02-18 09:00:00 TS -15.7151 118.944 main 394 385 P_____P__PP___ SH141948 -15.9575 119.223 -1 -15.0167 118.136 -15.9575 119.223 TC -15.9286 119.194 7 5 186
1948049S15119 1948 18 SI WA NOT_NAMED 1948-02-18 11:00:00 TS -15.9020 118.935 main 385 380 P_____P__PO___ SH141948 -16.1193 119.211 -1 -15.2694 118.117 -16.1193 119.211 TC -16.1000 119.200 7 6 182
1948049S15119 1948 18 SI WA NOT_NAMED 1948-02-18 12:00:00 TS -15.9946 118.926 main 380 368 O_____P__OP___ jtwc_sh SH141948 -16.2000 119.200 -1 -15.3954 118.107 -16.2000 119.200 TC -16.1830 119.197 7 6 184
1948049S15119 1948 18 SI WA NOT_NAMED 1948-02-18 15:00:00 TS -16.2741 118.891 main 368 361 P_____P__PP___ SH141948 -16.4500 119.165 -1 -15.7717 118.072 -16.4500 119.165 TC -16.4249 119.161 7 6 189
1948049S15119 1948 18 SI WA NOT_NAMED 1948-02-18 18:00:00 TS -16.5527 118.830 main 368 361 O_____P__OP___ jtwc_sh SH141948 -16.7000 119.100 -1 -16.1449 118.031 -16.7000 119.100 TC -16.6660 119.090 7 6 193
1948049S15119 1948 18 SI WA NOT_NAMED 1948-02-18 21:00:00 TS -16.8258 118.753 main 361 349 P_____P__PP___ SH141948 -16.9350 119.022 -1 -16.5143 117.981 -16.9350 119.022 TC -16.9188 118.986 7 6 197
1948049S15119 1948 18 SI WA NOT_NAMED 1948-02-18 23:00:00 TS -17.0172 118.684 main 349 339 P_____P__PO___ SH141948 -17.1052 118.947 -1 -16.7582 117.943 -17.1052 118.947 TC -17.1000 118.900 7 6 207
1948049S15119 1948 18 SI WA NOT_NAMED 1948-02-19 00:00:00 TS -17.1068 118.601 main 339 328 O_____P__OP___ jtwc_sh SH141948 -17.2000 118.900 -1 -16.8794 117.922 -17.2000 118.900 TC -17.1995 118.859 7 7 220
1948049S15119 1948 18 SI WA NOT_NAMED 1948-02-19 01:00:00 TS -17.2058 118.519 960 bom main 330 310 P_____O__PP___ SH141948 -17.3079 118.845 -1 -17.0000 117.900 960 -17.3079 118.845 TC -17.3021 118.814 7 8 213
1948049S15119 1948 18 SI WA NOT_NAMED 1948-02-19 03:00:00 TS -17.4266 118.387 main 310 281 P_____P__PP___ SH141948 -17.5425 118.715 -1 -17.2395 117.852 -17.5425 118.715 TC -17.5150 118.715 7 8 209
1948049S15119 1948 18 SI WA NOT_NAMED 1948-02-19 06:00:00 TS -17.7680 118.197 main 274 247 O_____P__OP___ jtwc_sh SH141948 -17.9000 118.500 -1 -17.5950 117.769 -17.9000 118.500 TC -17.8464 118.542 7 8 206
1948049S15119 1948 18 SI WA NOT_NAMED 1948-02-19 09:00:00 TS -18.0982 118.037 main 251 232 P_____P__PP___ SH141948 -18.2075 118.307 -1 -17.9469 117.670 -18.2075 118.307 TC -18.1811 118.344 7 7 205
1948049S15119 1948 18 SI WA NOT_NAMED 1948-02-19 11:00:00 TS -18.3132 117.923 main 235 224 P_____P__PO___ SH141948 -18.4026 118.172 -1 -18.1799 117.595 -18.4026 118.172 TC -18.4000 118.200 7 7 208
1948049S15119 1948 18 SI WA NOT_NAMED 1948-02-19 12:00:00 TS -18.4189 117.863 main 224 194 O_____P__OP___ jtwc_sh SH141948 -18.5000 118.100 -1 -18.2961 117.554 -18.5000 118.100 TC -18.5009 118.128 7 7 210
1948049S15119 1948 18 SI WA NOT_NAMED 1948-02-19 15:00:00 TS -18.7376 117.665 main 194 168 P_____P__PP___ SH141948 -18.8000 117.857 -1 -18.6434 117.419 -18.8000 117.857 TC -18.7970 117.895 7 8 211
1948049S15119 1948 18 SI WA NOT_NAMED 1948-02-19 18:00:00 TS -19.0557 117.451 main 158 140 O_____P__OP___ jtwc_sh SH141948 -19.1000 117.600 -1 -18.9899 117.262 -19.1000 117.600 TC -19.0906 117.644 7 8 213
1948049S15119 1948 18 SI WA NOT_NAMED 1948-02-19 21:00:00 TS -19.3722 117.229 main 140 116 P_____P__PP___ SH141948 -19.3925 117.350 -1 -19.3364 117.082 -19.3925 117.350 TC -19.3912 117.380 7 8 214
1948049S15119 1948 18 SI WA NOT_NAMED 1948-02-19 23:00:00 TS -19.5878 117.075 main 116 102 P_____P__PO___ SH141948 -19.5943 117.183 -1 -19.5679 116.947 -19.5943 117.183 TC -19.6000 117.200 7 8 214
1948049S15119 1948 18 SI WA NOT_NAMED 1948-02-20 00:00:00 TS -19.6980 116.997 main 102 90 O_____P__OP___ jtwc_sh SH141948 -19.7000 117.100 -1 -19.6838 116.875 -19.7000 117.100 TC -19.7063 117.110 7 8 214
1948049S15119 1948 18 SI WA NOT_NAMED 1948-02-20 01:00:00 TS -19.8106 116.919 950 bom main 90 67 P_____O__PP___ SH141948 -19.8109 117.019 -1 -19.8000 116.800 950 -19.8109 117.019 TC -19.8140 117.020 7 8 214
1948049S15119 1948 18 SI WA NOT_NAMED 1948-02-20 03:00:00 TS -20.0425 116.753 main 67 30 P_____P__PP___ SH141948 -20.0424 116.857 -1 -20.0415 116.612 950 -20.0424 116.857 TC -20.0346 116.835 7 8 214
1948049S15119 1948 18 SI WA NOT_NAMED 1948-02-20 06:00:00 TS -20.3941 116.503 main 30 23 O_____P__OP___ jtwc_sh SH141948 -20.4000 116.600 -1 -20.3907 116.360 950 -20.4000 116.600 TC -20.3795 116.557 7 8 214
1948049S15119 1948 18 SI WA NOT_NAMED 1948-02-20 07:00:00 TS -20.5065 116.419 950 bom main 30 22 P_____O__PP___ SH141948 -20.5140 116.503 -1 -20.5000 116.300 950 4 -20.5140 116.503 TC -20.4988 116.464 7 8 214
1948049S15119 1948 18 SI WA NOT_NAMED 1948-02-20 09:00:00 TS -20.7276 116.259 main 22 0 P_____P__PP___ SH141948 -20.7425 116.300 -1 -20.7025 116.239 950 -20.7425 116.300 TC -20.7443 116.280 7 8 214
1948049S15119 1948 18 SI WA NOT_NAMED 1948-02-20 11:00:00 TS -20.9508 116.104 950 bom main 10 10 P_____O__PO___ SH141948 -20.9776 116.097 -1 -20.9000 116.200 950 -20.9776 116.097 TC -21.0000 116.100 7 8 214
1948049S15119 1948 18 SI WA NOT_NAMED 1948-02-20 12:00:00 TS -21.0622 116.019 main 0 0 O_____P__OP___ jtwc_sh SH141948 -21.1000 116.000 -1 -20.9965 116.151 -21.1000 116.000 TC -21.1206 115.992 7 8 215
1948049S15119 1948 18 SI WA NOT_NAMED 1948-02-20 15:00:00 TS -21.4034 115.767 main 0 0 P_____P__PP___ SH141948 -21.4774 115.742 -1 -21.2833 115.946 -21.4774 115.742 TC -21.4944 115.663 7 9 213
1948049S15119 1948 18 SI WA NOT_NAMED 1948-02-20 18:00:00 TS -21.7775 115.527 main 0 0 O_____P__OP___ jtwc_sh SH141948 -21.9000 115.500 -1 -21.5861 115.700 -21.9000 115.500 TC -21.9004 115.369 7 9 209
1948049S15119 1948 18 SI WA NOT_NAMED 1948-02-20 21:00:00 TS -22.1957 115.292 main 0 0 P_____P__PP___ SH141948 -22.3626 115.191 -1 -21.9306 115.472 -22.3626 115.191 TC -22.3575 115.163 7 10 203
1948049S15119 1948 18 SI WA NOT_NAMED 1948-02-20 23:00:00 TS -22.5129 115.188 main 0 0 P_____P__PO___ SH141948 -22.7110 115.038 -1 -22.1963 115.360 -22.7110 115.038 TC -22.7000 115.100 7 10 194
1948049S15119 1948 18 SI WA NOT_NAMED 1948-02-21 00:00:00 TS -22.6868 115.162 main 0 0 O_____P__OP___ jtwc_sh SH141948 -22.9000 115.000 -1 -22.3429 115.322 -22.9000 115.000 TC -22.8911 115.090 7 11 186
1948049S15119 1948 18 SI WA NOT_NAMED 1948-02-21 01:00:00 TS -22.8736 115.155 978 bom main 0 0 P_____O__PP___ SH141948 -23.0995 114.994 -1 -22.5000 115.300 978 -23.0995 114.994 TC -23.0919 115.096 7 12 175
1948049S15119 1948 18 SI WA NOT_NAMED 1948-02-21 03:00:00 TS -23.2797 115.195 main 0 0 P_____P__PP___ SH141948 -23.5274 115.060 -1 -22.8707 115.304 -23.5274 115.060 TC -23.5164 115.154 7 13 170
1948049S15119 1948 18 SI WA NOT_NAMED 1948-02-21 06:00:00 TS -23.9295 115.362 main 0 0 O_____P__OP___ jtwc_sh SH141948 -24.2000 115.300 -1 -23.4921 115.396 -24.2000 115.300 TC -24.1879 115.344 7 14 164
1948049S15119 1948 18 SI WA NOT_NAMED 1948-02-21 09:00:00 TS -24.5878 115.613 main 0 0 P_____P__PP___ SH141948 -24.8649 115.598 -1 -24.1495 115.590 -24.8649 115.598 TC -24.8653 115.646 7 14 158
1948049S15119 1948 18 SI WA NOT_NAMED 1948-02-21 11:00:00 TS -25.0153 115.837 main 0 0 P_____P__PO___ SH141948 -25.2947 115.856 -1 -24.5844 115.773 -25.2947 115.856 TC -25.3000 115.900 7 14 154
1948049S15119 1948 18 SI WA NOT_NAMED 1948-02-21 12:00:00 TS -25.2187 115.961 main 0 0 O_____P__OP___ jtwc_sh SH141948 -25.5000 116.000 -1 -24.7955 115.881 -25.5000 116.000 TC -25.4979 116.022 7 14 150
1948049S15119 1948 18 SI WA NOT_NAMED 1948-02-21 13:00:00 TS -25.4126 116.090 bom main 0 0 P_____O__PP___ SH141948 -25.6947 116.145 -1 -25.0000 116.000 -25.6947 116.145 TC -25.6920 116.155 7 14 146
1948049S15119 1948 18 SI WA NOT_NAMED 1948-02-21 15:00:00 TS -25.7798 116.374 main 0 0 P_____P__PP___ SH141948 -26.0649 116.463 -1 -25.3655 116.244 -26.0649 116.463 TC -26.0700 116.455 7 14 142
1948049S15119 1948 18 SI WA NOT_NAMED 1948-02-21 18:00:00 TS -26.3077 116.873 main 0 0 O_____P__OP___ jtwc_sh SH141948 -26.6000 117.000 -1 -25.8821 116.691 -26.6000 117.000 TC -26.6171 116.977 7 14 138
1948049S15119 1948 18 SI WA NOT_NAMED 1948-02-21 21:00:00 TS -26.8319 117.430 main 0 0 P_____P__PP___ SH141948 -27.1572 117.570 -1 -26.3710 117.217 -27.1572 117.570 TC -27.1490 117.571 7 15 135
1948049S15119 1948 18 SI WA NOT_NAMED 1948-02-21 23:00:00 TS -27.1748 117.834 main 0 0 P_____P__PO___ SH141948 -27.5222 117.984 -1 -26.6873 117.600 -27.5222 117.984 TC -27.5000 118.000 7 15 133
1948049S15119 1948 18 SI WA NOT_NAMED 1948-02-22 00:00:00 TS -27.3456 118.041 main 0 0 O_____P__OP___ jtwc_sh SH141948 -27.7000 118.200 -1 -26.8439 117.798 -27.7000 118.200 TC -27.6843 118.209 7 15 132
1948049S15119 1948 18 SI WA NOT_NAMED 1948-02-22 01:00:00 TS -27.5130 118.252 984 bom main 0 0 P_____O__PP___ SH141948 -27.8696 118.417 -1 -27.0000 118.000 984 -27.8696 118.417 TC -27.8684 118.425 7 15 131
1948049S15119 1948 18 SI WA NOT_NAMED 1948-02-22 03:00:00 TS -27.8435 118.689 main 0 0 P_____P__PP___ SH141948 -28.1996 118.871 -1 -27.3121 118.412 -28.1996 118.871 TC -28.2343 118.877 7 16 130
1948049S15119 1948 18 SI WA NOT_NAMED 1948-02-22 06:00:00 TS -28.3384 119.380 main 0 0 O_____P__OP___ jtwc_sh SH141948 -28.7000 119.600 -1 -27.7800 119.050 -28.7000 119.600 TC -28.7703 119.600 7 16 129
1948049S15119 1948 18 SI WA NOT_NAMED 1948-02-22 09:00:00 TS -28.8533 120.112 main 0 0 P_____P__PP___ SH141948 -29.2648 120.385 -1 -28.2471 119.710 -29.2648 120.385 TC -29.2803 120.368 7 17 128
1948049S15119 1948 18 SI WA NOT_NAMED 1948-02-22 11:00:00 TS -29.1879 120.617 main 0 0 P_____P__PO___ SH141948 -29.6310 120.928 -1 -28.5577 120.161 -29.6310 120.928 TC -29.6000 120.900 7 15 125
1948049S15119 1948 18 SI WA NOT_NAMED 1948-02-22 12:00:00 TS -29.2977 120.835 main 0 0 O_____P__OP___ jtwc_sh SH141948 -29.8000 121.200 -1 -28.7127 120.389 -29.8000 121.200 TC -29.7526 121.171 7 14 121
1948049S15119 1948 18 SI WA NOT_NAMED 1948-02-22 15:00:00 TS -29.6824 121.549 main 0 0 P_____P__PP___ SH141948 -30.2333 122.004 -1 -29.1764 121.085 -30.2333 122.004 TC -30.1834 122.001 7 14 120
1948049S15119 1948 18 SI WA NOT_NAMED 1948-02-22 18:00:00 TS -29.9904 122.203 main 0 0 O_____P__OP___ jtwc_sh SH141948 -30.6000 122.800 -1 -29.6376 121.796 -30.6000 122.800 TC -30.5817 122.851 7 12 119
1948049S15119 1948 18 SI WA NOT_NAMED 1948-02-22 21:00:00 TS -30.2717 122.798 main 0 0 ______P___P___ SH141948 -1 -30.0955 122.520 TC -30.9573 123.717 7 12 120
1948049S15119 1948 18 SI WA NOT_NAMED 1948-02-22 23:00:00 TS -30.5161 123.238 main 0 0 ______P___O___ SH141948 -1 -30.3987 123.008 TC -31.2000 124.300 7 10 123
1948049S15119 1948 18 SI WA NOT_NAMED 1948-02-23 00:00:00 TS -30.5331 123.269 main 0 0 ______P_______ -1 -30.5496 123.254 7 9 129
1948049S15119 1948 18 SI WA NOT_NAMED 1948-02-23 01:00:00 NR -30.7000 123.500 994 bom main 0 ______O_______ -1 -30.7000 123.500 994 7 16 130

IBTrACS Databaseについて

本データベースは、米国NOAAが公開する1842年以降の世界の熱帯低気圧のベストトラックデータアーカイブInternational Best Track Archive for Climate Stewardship (IBTrACS)を、ウェブで閲覧しやすい形式に変換したものです。

最終更新日:2021-10-21